createdAt,value
2022-12-27T00:00:20.801Z,160257.13
2022-12-27T00:03:24.924Z,160245.38
2022-12-27T00:06:29.792Z,160253.22
2022-12-27T00:09:33.846Z,160244.09
2022-12-27T00:12:37.994Z,160212.75
2022-12-27T00:15:42.078Z,160215.38
2022-12-27T00:18:47.317Z,160191.88
2022-12-27T00:21:51.135Z,160211.47
2022-12-27T00:24:55.257Z,160195.75
2022-12-27T00:27:59.058Z,160194.47
2022-12-27T00:31:03.737Z,160176.19
2022-12-27T00:34:07.887Z,160180.13
2022-12-27T00:37:12.096Z,160197.06
2022-12-27T00:40:16.237Z,160181.44
2022-12-27T00:43:20.193Z,160180.13
2022-12-27T00:46:24.118Z,160165.78
2022-12-27T00:49:27.916Z,160140.97
2022-12-27T00:52:31.919Z,160134.41
2022-12-27T00:55:36.192Z,160120.06
2022-12-27T00:58:41.132Z,160125.25
2022-12-27T01:01:45.432Z,160140.97
2022-12-27T01:04:49.387Z,160138.34
2022-12-27T01:07:53.264Z,160124.00
2022-12-27T01:11:00.540Z,160121.34
2022-12-27T01:14:05.494Z,160120.06
2022-12-27T01:17:09.384Z,160090.06
2022-12-27T01:20:13.526Z,160065.28
2022-12-27T01:23:17.673Z,160030.03
2022-12-27T01:26:22.982Z,160011.75
2022-12-27T01:29:26.793Z,160017.00
2022-12-27T01:32:34.082Z,159983.06
2022-12-27T01:35:38.214Z,159941.31
2022-12-27T01:38:45.130Z,159924.34
2022-12-27T01:42:07.559Z,159904.81
2022-12-27T01:45:17.577Z,159903.47
2022-12-27T01:48:24.563Z,159894.31
2022-12-27T01:51:28.743Z,159857.81
2022-12-27T01:54:33.131Z,159855.22
2022-12-27T01:57:37.423Z,159831.69
2022-12-27T02:00:44.656Z,159850.00
2022-12-27T02:03:53.589Z,159827.78
2022-12-27T02:06:59.506Z,159817.41
2022-12-27T02:10:03.762Z,159804.34
2022-12-27T02:13:07.806Z,159787.34
2022-12-27T02:16:17.947Z,159786.03
2022-12-27T02:19:32.249Z,159783.44
2022-12-27T02:23:16.575Z,159800.41
2022-12-27T02:26:46.570Z,159777.00
2022-12-27T02:30:12.964Z,159763.91
2022-12-27T02:33:25.177Z,159756.09
2022-12-27T02:36:33.654Z,159740.38
2022-12-27T02:39:42.192Z,159731.28
2022-12-27T02:43:06.712Z,159718.28
2022-12-27T02:46:49.888Z,159703.91
2022-12-27T02:50:12.639Z,159707.81
2022-12-27T02:53:49.476Z,159701.31
2022-12-27T02:57:22.909Z,159673.91
2022-12-27T03:00:49.005Z,159666.09
2022-12-27T03:04:19.835Z,159660.91
2022-12-27T03:07:32.649Z,159651.75
2022-12-27T03:11:05.227Z,159660.91
2022-12-27T03:14:55.110Z,159650.44
2022-12-27T03:18:09.322Z,159619.19
2022-12-27T03:21:38.487Z,159607.44
2022-12-27T03:25:01.287Z,159623.06
2022-12-27T03:28:47.107Z,159613.94
2022-12-27T03:32:14.436Z,159612.63
2022-12-27T03:35:22.490Z,159599.56
2022-12-27T03:38:36.455Z,159593.06
2022-12-27T03:42:04.019Z,159591.75
2022-12-27T03:45:09.804Z,159623.06
2022-12-27T03:48:20.524Z,159645.22
2022-12-27T03:51:27.813Z,159649.13
2022-12-27T03:54:38.702Z,159649.13
2022-12-27T03:57:43.370Z,159659.59
2022-12-27T04:00:47.911Z,159624.31
2022-12-27T04:03:52.004Z,159606.13
2022-12-27T04:06:56.190Z,159596.97
2022-12-27T04:10:19.234Z,159600.91
2022-12-27T04:13:41.911Z,159594.41
2022-12-27T04:17:04.596Z,159602.22
2022-12-27T04:20:27.952Z,159617.88
2022-12-27T04:23:51.161Z,159581.34
2022-12-27T04:27:13.634Z,159563.09
2022-12-27T04:30:36.672Z,159530.50
2022-12-27T04:33:59.232Z,159505.69
2022-12-27T04:37:03.314Z,159501.84
2022-12-27T04:40:26.495Z,159509.63
2022-12-27T04:43:49.207Z,159509.63
2022-12-27T04:47:12.043Z,159507.03
2022-12-27T04:50:47.003Z,159533.13
2022-12-27T04:54:12.727Z,159568.28
2022-12-27T04:57:16.674Z,159582.66
2022-12-27T05:00:41.501Z,159583.94
2022-12-27T05:03:48.456Z,159578.75
2022-12-27T05:06:53.276Z,159594.41
2022-12-27T05:10:18.837Z,159589.16
2022-12-27T05:13:41.676Z,159593.06
2022-12-27T05:16:45.952Z,159587.84
2022-12-27T05:19:50.291Z,159582.66
2022-12-27T05:23:13.282Z,159570.88
2022-12-27T05:26:22.547Z,159578.75
2022-12-27T05:29:28.073Z,159582.66
2022-12-27T05:32:32.167Z,159576.09
2022-12-27T05:35:36.600Z,159583.94
2022-12-27T05:38:40.961Z,159568.28
2022-12-27T05:41:45.151Z,159565.75
2022-12-27T05:44:49.258Z,159568.28
2022-12-27T05:47:54.071Z,159566.97
2022-12-27T05:50:58.700Z,159585.25
2022-12-27T05:54:02.676Z,159573.53
2022-12-27T05:57:06.516Z,159560.50
2022-12-27T06:00:11.879Z,159563.09
2022-12-27T06:03:15.992Z,159550.03
2022-12-27T06:06:20.275Z,159560.50
2022-12-27T06:09:25.834Z,159573.53
2022-12-27T06:12:30.128Z,159563.09
2022-12-27T06:15:34.407Z,159566.97
2022-12-27T06:18:40.040Z,159583.94
2022-12-27T06:21:44.374Z,159596.97
2022-12-27T06:24:48.557Z,159595.66
2022-12-27T06:27:52.743Z,159573.53
2022-12-27T06:30:59.523Z,159572.19
2022-12-27T06:34:04.135Z,159574.78
2022-12-27T06:37:08.262Z,159589.16
2022-12-27T06:40:12.264Z,159565.75
2022-12-27T06:43:16.745Z,159566.97
2022-12-27T06:46:20.975Z,159580.00
2022-12-27T06:49:25.737Z,159583.94
2022-12-27T06:52:29.809Z,159582.66
2022-12-27T06:55:34.601Z,159578.75
2022-12-27T06:58:38.711Z,159600.91
2022-12-27T07:01:42.749Z,159566.97
2022-12-27T07:04:46.726Z,159556.59
2022-12-27T07:07:53.257Z,159553.94
2022-12-27T07:11:09.594Z,159553.94
2022-12-27T07:14:13.349Z,159583.94
2022-12-27T07:17:17.254Z,159594.41
2022-12-27T07:20:21.784Z,159612.63
2022-12-27T07:23:26.114Z,159634.78
2022-12-27T07:26:31.207Z,159623.06
2022-12-27T07:29:38.933Z,159675.22
2022-12-27T07:32:46.165Z,159677.81
2022-12-27T07:35:50.160Z,159692.16
2022-12-27T07:38:54.150Z,159718.28
2022-12-27T07:42:01.860Z,159758.69
2022-12-27T07:45:08.796Z,159782.13
2022-12-27T07:48:13.085Z,159789.94
2022-12-27T07:51:17.715Z,159780.84
2022-12-27T07:54:21.895Z,159809.56
2022-12-27T07:57:25.676Z,159823.91
2022-12-27T08:00:30.085Z,159810.84
2022-12-27T08:03:34.972Z,159803.00
2022-12-27T08:06:39.606Z,159779.53
2022-12-27T08:09:46.197Z,159783.44
2022-12-27T08:12:50.220Z,159787.34
2022-12-27T08:15:55.015Z,159784.75
2022-12-27T08:19:02.057Z,159786.03
2022-12-27T08:22:11.201Z,159773.06
2022-12-27T08:25:15.187Z,159809.56
2022-12-27T08:28:19.405Z,159792.59
2022-12-27T08:31:23.511Z,159810.84
2022-12-27T08:34:27.476Z,159823.91
2022-12-27T08:37:31.558Z,159844.75
2022-12-27T08:40:40.535Z,159851.31
2022-12-27T08:43:44.692Z,159865.66
2022-12-27T08:46:49.056Z,159893.00
2022-12-27T08:49:53.622Z,159956.97
2022-12-27T08:53:04.578Z,160017.00
2022-12-27T08:56:08.887Z,160048.28
2022-12-27T08:59:13.500Z,160019.59
2022-12-27T09:02:17.606Z,160027.44
2022-12-27T09:05:22.362Z,160056.13
2022-12-27T09:08:26.482Z,160092.66
2022-12-27T09:11:33.363Z,160107.03
2022-12-27T09:14:37.737Z,160143.56
2022-12-27T09:17:42.114Z,160172.28
2022-12-27T09:20:46.028Z,160184.03
2022-12-27T09:23:50.963Z,160194.47
2022-12-27T09:26:54.761Z,160191.88
2022-12-27T09:29:58.687Z,160185.38
2022-12-27T09:33:02.527Z,160172.28
2022-12-27T09:36:12.884Z,160189.28
2022-12-27T09:39:17.256Z,160187.97
2022-12-27T09:43:07.548Z,160151.41
2022-12-27T09:46:02.744Z,160137.06
2022-12-27T09:49:11.384Z,160139.66
2022-12-27T09:52:26.722Z,160129.19
2022-12-27T09:55:46.684Z,160160.53
2022-12-27T09:58:51.551Z,160187.97
2022-12-27T10:01:55.352Z,160229.69
2022-12-27T10:08:51.119Z,160249.28
2022-12-27T10:12:07.421Z,160264.97
2022-12-27T10:15:14.628Z,160261.09
2022-12-27T10:18:21.561Z,160250.59
2022-12-27T10:21:28.057Z,160270.16
2022-12-27T10:24:42.261Z,160266.25
2022-12-27T10:27:47.859Z,160254.53
2022-12-27T10:30:52.976Z,160225.81
2022-12-27T10:33:57.544Z,160262.38
2022-12-27T10:37:01.716Z,160300.19
2022-12-27T10:40:14.067Z,160328.97
2022-12-27T10:43:32.637Z,160345.91
2022-12-27T10:46:37.198Z,160318.53
2022-12-27T10:49:44.683Z,160306.72
2022-12-27T10:52:52.732Z,160317.19
2022-12-27T10:56:08.003Z,160267.56
2022-12-27T10:59:21.522Z,160268.88
2022-12-27T11:02:25.895Z,160285.88
2022-12-27T11:05:32.110Z,160306.72
2022-12-27T11:08:35.954Z,160322.44
2022-12-27T11:11:39.978Z,160317.19
2022-12-27T11:15:22.573Z,160296.31
2022-12-27T11:18:26.653Z,160268.88
2022-12-27T11:21:31.561Z,160275.41
2022-12-27T11:24:36.071Z,160261.09
2022-12-27T11:27:46.754Z,160293.72
2022-12-27T11:30:57.206Z,160330.22
2022-12-27T11:34:16.206Z,160375.97
2022-12-27T11:37:25.908Z,160395.56
2022-12-27T11:40:34.568Z,160381.19
2022-12-27T11:43:45.422Z,160366.78
2022-12-27T11:47:20.568Z,160385.13
2022-12-27T11:50:27.547Z,160411.19
2022-12-27T11:53:56.312Z,160416.44
2022-12-27T11:57:12.866Z,160398.13
2022-12-27T12:00:23.653Z,160361.59
2022-12-27T12:03:52.306Z,160359.00
2022-12-27T12:07:21.227Z,160417.78
2022-12-27T12:11:09.994Z,160399.44
2022-12-27T12:14:20.227Z,160421.69
2022-12-27T12:17:55.284Z,160438.66
2022-12-27T12:21:37.601Z,160432.06
2022-12-27T12:25:07.673Z,160425.63
2022-12-27T12:29:01.016Z,160406.00
2022-12-27T12:33:03.097Z,160387.72
2022-12-27T12:36:22.677Z,160383.78
2022-12-27T12:39:45.446Z,160365.47
2022-12-27T12:43:09.716Z,160385.13
2022-12-27T12:46:14.229Z,160381.19
2022-12-27T12:49:58.333Z,160409.91
2022-12-27T12:53:19.251Z,160430.81
2022-12-27T12:56:43.906Z,160434.72
2022-12-27T13:00:04.582Z,160439.91
2022-12-27T13:03:29.095Z,160458.25
2022-12-27T13:06:57.308Z,160447.75
2022-12-27T13:10:10.324Z,160471.28
2022-12-27T13:13:41.131Z,160518.31
2022-12-27T13:17:02.845Z,160570.59
2022-12-27T13:20:36.105Z,160591.47
2022-12-27T13:23:46.113Z,160583.63
2022-12-27T13:27:25.052Z,160566.66
2022-12-27T13:30:45.505Z,160541.84
2022-12-27T13:34:21.713Z,160556.16
2022-12-27T13:37:41.103Z,160518.31
2022-12-27T13:41:29.922Z,160479.13
2022-12-27T13:45:03.150Z,160447.75
2022-12-27T13:48:38.338Z,160432.06
2022-12-27T13:51:52.908Z,160422.97
2022-12-27T13:55:15.109Z,160395.56
2022-12-27T13:58:48.434Z,160387.72
2022-12-27T14:02:33.382Z,160369.38
2022-12-27T14:05:40.775Z,160356.41
2022-12-27T14:09:03.180Z,160315.88
2022-12-27T14:12:44.761Z,160328.97
2022-12-27T14:16:18.591Z,160298.88
2022-12-27T14:19:39.535Z,160304.13
2022-12-27T14:22:55.760Z,160272.81
2022-12-27T14:26:21.952Z,160289.81
2022-12-27T14:29:49.788Z,160279.31
2022-12-27T14:33:16.645Z,160275.41
2022-12-27T14:36:58.443Z,160280.66
2022-12-27T14:40:20.455Z,160257.13
2022-12-27T14:43:50.646Z,160249.28
2022-12-27T14:47:21.719Z,160232.28
2022-12-27T14:50:47.299Z,160218.00
2022-12-27T14:54:06.353Z,160204.91
2022-12-27T14:57:35.672Z,160199.66
2022-12-27T15:01:09.229Z,160187.97
2022-12-27T15:04:31.986Z,160189.28
2022-12-27T15:08:03.658Z,160184.03
2022-12-27T15:11:24.177Z,160170.97
2022-12-27T15:14:50.006Z,160176.19
2022-12-27T15:18:17.236Z,160163.13
2022-12-27T15:21:59.188Z,160147.50
2022-12-27T15:25:19.520Z,160140.97
2022-12-27T15:28:31.816Z,160126.59
2022-12-27T15:31:35.813Z,160125.25
2022-12-27T15:35:26.543Z,160114.88
2022-12-27T15:38:41.003Z,160124.00
2022-12-27T15:42:04.159Z,160117.47
2022-12-27T15:45:40.423Z,160122.66
2022-12-27T15:49:16.694Z,160112.22
2022-12-27T15:52:53.075Z,160105.72
2022-12-27T15:56:07.467Z,160120.06
2022-12-27T15:59:32.115Z,160105.72
2022-12-27T16:02:48.664Z,160084.81
2022-12-27T16:05:53.964Z,160079.63
2022-12-27T16:09:20.183Z,160080.94
2022-12-27T16:12:37.241Z,160079.63
2022-12-27T16:15:44.900Z,160083.50
2022-12-27T16:19:01.362Z,160100.47
2022-12-27T16:22:22.119Z,160080.94
2022-12-27T16:25:41.014Z,160077.03
2022-12-27T16:29:13.575Z,160090.06
2022-12-27T16:32:23.923Z,160092.66
2022-12-27T16:35:28.104Z,160087.41
2022-12-27T16:38:34.054Z,160074.44
2022-12-27T16:41:59.908Z,160084.81
2022-12-27T16:45:22.831Z,160084.81
2022-12-27T16:48:49.067Z,160087.41
2022-12-27T16:52:31.131Z,160070.53
2022-12-27T16:55:56.993Z,160084.81
2022-12-27T16:59:01.563Z,160063.97
2022-12-27T17:02:32.222Z,160041.78
2022-12-27T17:05:36.957Z,160032.66
2022-12-27T17:08:41.469Z,160030.03
2022-12-27T17:11:51.695Z,160045.69
2022-12-27T17:15:04.273Z,160056.13
2022-12-27T17:18:22.796Z,160049.59
2022-12-27T17:21:30.976Z,160061.34
2022-12-27T17:24:35.760Z,160067.88
2022-12-27T17:27:58.274Z,160063.97
2022-12-27T17:31:21.065Z,160066.59
2022-12-27T17:34:59.419Z,160057.44
2022-12-27T17:38:15.545Z,160063.97
2022-12-27T17:41:45.433Z,160061.34
2022-12-27T17:45:02.640Z,160061.34
2022-12-27T17:48:26.831Z,160058.72
2022-12-27T17:51:33.708Z,160048.28
2022-12-27T17:54:56.063Z,160053.53
2022-12-27T17:58:02.389Z,160061.34
2022-12-27T18:01:06.805Z,160058.72
2022-12-27T18:04:19.775Z,160063.97
2022-12-27T18:07:29.549Z,160066.59
2022-12-27T18:10:36.480Z,160067.88
2022-12-27T18:13:53.638Z,160074.44
2022-12-27T18:16:57.944Z,160075.72
2022-12-27T18:20:26.317Z,160066.59
2022-12-27T18:23:42.578Z,160070.53
2022-12-27T18:26:46.422Z,160074.44
2022-12-27T18:29:50.543Z,160077.03
2022-12-27T18:32:56.487Z,160074.44
2022-12-27T18:36:04.199Z,160074.44
2022-12-27T18:39:25.096Z,160080.94
2022-12-27T18:42:44.685Z,160086.13
2022-12-27T18:45:48.949Z,160091.38
2022-12-27T18:48:53.632Z,160095.28
2022-12-27T18:51:58.602Z,160099.22
2022-12-27T18:55:15.342Z,160103.13
2022-12-27T18:58:23.315Z,160104.41
2022-12-27T19:01:40.588Z,160095.28
2022-12-27T19:04:44.804Z,160082.22
2022-12-27T19:08:16.893Z,160067.88
2022-12-27T19:11:33.093Z,160058.72
2022-12-27T19:14:46.064Z,160048.28
2022-12-27T19:17:53.185Z,160033.94
2022-12-27T19:21:00.181Z,160046.97
2022-12-27T19:24:23.540Z,160035.25
2022-12-27T19:27:27.953Z,160019.59
2022-12-27T19:30:39.242Z,160009.13
2022-12-27T19:33:47.428Z,160009.13
2022-12-27T19:36:53.201Z,160011.75
2022-12-27T19:39:59.177Z,160002.59
2022-12-27T19:43:03.771Z,160000.06
2022-12-27T19:46:10.617Z,159996.16
2022-12-27T19:49:40.834Z,159990.91
2022-12-27T19:52:39.159Z,159983.06
2022-12-27T19:55:43.712Z,159993.50
2022-12-27T19:58:48.530Z,159976.50
2022-12-27T20:01:52.947Z,159954.38
2022-12-27T20:04:56.905Z,159936.06
2022-12-27T20:08:01.370Z,159926.94
2022-12-27T20:11:07.920Z,159924.34
2022-12-27T20:14:14.340Z,159906.06
2022-12-27T20:17:18.356Z,159907.41
2022-12-27T20:20:22.452Z,159894.31
2022-12-27T20:23:26.306Z,159881.25
2022-12-27T20:26:30.873Z,159870.88
2022-12-27T20:29:35.406Z,159855.22
2022-12-27T20:32:39.646Z,159857.81
2022-12-27T20:35:43.704Z,159851.31
2022-12-27T20:38:47.729Z,159838.25
2022-12-27T20:41:51.879Z,159834.31
2022-12-27T20:44:55.774Z,159838.25
2022-12-27T20:47:59.650Z,159831.69
2022-12-27T20:51:18.786Z,159831.69
2022-12-27T20:54:23.001Z,159827.78
2022-12-27T20:57:27.844Z,159829.09
2022-12-27T21:00:31.818Z,159806.94
2022-12-27T21:03:37.248Z,159788.69
2022-12-27T21:06:41.358Z,159784.75
2022-12-27T21:09:45.366Z,159783.44
2022-12-27T21:12:49.422Z,159799.09
2022-12-27T21:15:53.263Z,159784.75
2022-12-27T21:18:57.772Z,159800.41
2022-12-27T21:22:01.832Z,159823.91
2022-12-27T21:25:06.529Z,159822.63
2022-12-27T21:28:10.449Z,159848.66
2022-12-27T21:31:15.972Z,159838.25
2022-12-27T21:34:20.589Z,159870.88
2022-12-27T21:37:24.715Z,159881.25
2022-12-27T21:40:28.826Z,159873.44
2022-12-27T21:43:33.823Z,159885.19
2022-12-27T21:46:40.799Z,159890.41
2022-12-27T21:49:45.117Z,159886.50
2022-12-27T21:52:49.150Z,159885.19
2022-12-27T21:55:58.314Z,159890.41
2022-12-27T21:59:05.425Z,159899.56
2022-12-27T22:02:09.762Z,159891.72
2022-12-27T22:05:13.977Z,159876.06
2022-12-27T22:08:18.246Z,159878.66
2022-12-27T22:11:24.058Z,159881.25
2022-12-27T22:14:31.837Z,159886.50
2022-12-27T22:17:39.002Z,159903.47
2022-12-27T22:20:46.932Z,159910.00
2022-12-27T22:23:53.339Z,159928.25
2022-12-27T22:26:57.018Z,159921.72
2022-12-27T22:30:00.898Z,159925.66
2022-12-27T22:33:06.300Z,159936.06
2022-12-27T22:36:14.437Z,159938.66
2022-12-27T22:39:18.637Z,159950.47
2022-12-27T22:42:22.881Z,159951.75
2022-12-27T22:45:27.429Z,159946.56
2022-12-27T22:48:31.365Z,159959.56
2022-12-27T22:51:37.721Z,160015.69
2022-12-27T22:55:04.795Z,160009.13
2022-12-27T22:58:06.521Z,160017.00
2022-12-27T23:01:16.236Z,159996.16
2022-12-27T23:04:20.372Z,159973.91
2022-12-27T23:08:05.859Z,159953.06
2022-12-27T23:10:48.598Z,159946.56
2022-12-27T23:13:58.234Z,159941.31
2022-12-27T23:17:02.258Z,159946.56
2022-12-27T23:20:07.158Z,159947.81
2022-12-27T23:23:10.931Z,159942.63
2022-12-27T23:26:17.847Z,159966.09
2022-12-27T23:29:22.145Z,159975.25
2022-12-27T23:32:26.250Z,159984.34
2022-12-27T23:35:30.188Z,159984.34
2022-12-27T23:38:34.857Z,159983.06
2022-12-27T23:41:39.209Z,159990.91
2022-12-27T23:44:43.474Z,159988.25
2022-12-27T23:47:47.559Z,159981.75
2022-12-27T23:50:51.442Z,159993.50
2022-12-27T23:53:55.561Z,159988.25
2022-12-27T23:57:20.128Z,159993.50
